Time;durP1;ratioP1;P1;durP2;ratioP2;P2;SDS_P1;SDS_P2;PMS_P1;PMS_P2;Temp;Humidity;BMP_temperature;BMP_pressure;BME280_temperature;BME280_humidity;BME280_pressure;Samples;Min_cycle;Max_cycle;Signal;HPM_P1;HPM_P2
2024/03/30 00:02:48;;;;;;;4.33;3.93;;;10.00;99.90;;;;;;6214594;23;20366;-78
2024/03/30 00:06:06;;;;;;;4.50;3.70;;;9.90;99.90;;;;;;6213448;23;20374;-79
2024/03/30 00:08:44;;;;;;;5.37;3.83;;;9.90;99.90;;;;;;6213809;23;20370;-76
2024/03/30 00:11:16;;;;;;;8.50;4.40;;;9.90;99.90;;;;;;6211341;23;20385;-78
2024/03/30 00:14:09;;;;;;;5.43;4.47;;;9.90;99.90;;;;;;6212334;23;20382;-78
2024/03/30 00:17:41;;;;;;;7.70;5.70;;;9.90;99.90;;;;;;6191048;23;20401;-77
2024/03/30 00:20:32;;;;;;;6.57;4.53;;;9.90;99.90;;;;;;6186700;23;20389;-78
2024/03/30 00:23:21;;;;;;;4.70;4.20;;;9.90;99.90;;;;;;6182681;23;20379;-78
2024/03/30 00:26:25;;;;;;;5.07;4.30;;;9.90;99.90;;;;;;6181972;23;20410;-77
2024/03/30 00:29:17;;;;;;;6.53;4.40;;;9.90;99.90;;;;;;6109955;23;20425;-77
2024/03/30 00:32:04;;;;;;;5.53;4.13;;;9.90;99.90;;;;;;6137479;23;20426;-77
2024/03/30 00:34:31;;;;;;;7.00;3.90;;;9.90;99.90;;;;;;6181815;23;20401;-79
2024/03/30 00:37:05;;;;;;;11.53;8.60;;;9.90;99.90;;;;;;6153935;23;20527;-77
2024/03/30 00:39:34;;;;;;;12.20;9.90;;;9.90;99.90;;;;;;6176711;23;20373;-77
2024/03/30 00:42:22;;;;;;;12.27;10.53;;;9.80;99.90;;;;;;6102959;23;20387;-77
2024/03/30 00:44:50;;;;;;;14.30;10.10;;;9.80;99.90;;;;;;6047227;23;20460;-76
2024/03/30 00:47:25;;;;;;;11.97;9.37;;;9.70;99.90;;;;;;6094143;23;20413;-77
2024/03/30 00:49:56;;;;;;;10.93;8.80;;;9.70;99.90;;;;;;6094495;23;20401;-77
2024/03/30 00:52:27;;;;;;;15.10;11.27;;;9.60;99.90;;;;;;6069977;23;20421;-77
2024/03/30 00:55:06;;;;;;;13.70;9.37;;;9.60;99.90;;;;;;6059671;23;20398;-76
2024/03/30 00:57:41;;;;;;;10.73;7.80;;;9.50;99.90;;;;;;6007521;23;20404;-76
2024/03/30 01:00:15;;;;;;;11.30;8.40;;;9.60;99.90;;;;;;6008027;23;20418;-77
2024/03/30 01:02:55;;;;;;;9.87;7.20;;;9.50;99.90;;;;;;5985918;23;20443;-78
2024/03/30 01:20:06;;;;;;;7.90;6.57;;;9.40;99.90;;;;;;6229582;23;20443;-76
2024/03/30 01:23:06;;;;;;;7.60;6.10;;;9.40;99.90;;;;;;6180195;23;20396;-76
2024/03/30 01:28:37;;;;;;;8.00;5.37;;;9.40;99.90;;;;;;6226407;23;20455;-76
2024/03/30 01:31:09;;;;;;;9.30;6.20;;;9.40;99.90;;;;;;6216798;23;20376;-76
2024/03/30 01:33:42;;;;;;;8.17;6.50;;;9.40;99.90;;;;;;6167823;23;20424;-77
2024/03/30 01:36:22;;;;;;;8.83;6.90;;;9.40;99.90;;;;;;6188744;23;20468;-75
2024/03/30 01:38:54;;;;;;;9.77;7.40;;;9.40;99.90;;;;;;6161020;23;20374;-76
2024/03/30 01:41:23;;;;;;;6.33;5.53;;;9.40;99.90;;;;;;6211493;23;20382;-76
2024/03/30 01:43:59;;;;;;;8.40;6.10;;;9.40;99.90;;;;;;6121648;23;20388;-77
2024/03/30 01:46:31;;;;;;;8.63;5.63;;;9.40;99.90;;;;;;6098726;23;20417;-77
2024/03/30 01:49:08;;;;;;;7.57;6.03;;;9.30;99.90;;;;;;6120123;23;20375;-76
2024/03/30 01:51:39;;;;;;;9.37;6.60;;;9.30;99.90;;;;;;6121049;23;20428;-77
2024/03/30 01:54:16;;;;;;;13.37;7.20;;;9.30;99.90;;;;;;6097705;23;20377;-76
2024/03/30 01:56:54;;;;;;;11.30;7.00;;;9.30;99.90;;;;;;6074096;23;20384;-77
2024/03/30 01:59:22;;;;;;;11.20;6.57;;;9.20;99.90;;;;;;6090636;23;20358;-76
2024/03/30 02:01:50;;;;;;;8.77;6.63;;;9.20;99.90;;;;;;6091007;23;20386;-77
2024/03/30 02:04:19;;;;;;;9.77;7.37;;;9.20;99.90;;;;;;6068592;23;20423;-76
2024/03/30 02:07:00;;;;;;;9.07;7.40;;;9.20;99.90;;;;;;6091817;23;20468;-76
2024/03/30 02:09:30;;;;;;;11.00;8.80;;;9.20;99.90;;;;;;6038073;23;20387;-76
2024/03/30 02:12:22;;;;;;;14.33;9.10;;;9.20;99.90;;;;;;6046414;23;20434;-76
2024/03/30 02:15:14;;;;;;;10.97;9.03;;;9.20;99.90;;;;;;6102797;23;20376;-76
2024/03/30 02:17:53;;;;;;;10.73;7.97;;;9.20;99.90;;;;;;6076270;23;20444;-77
2024/03/30 02:20:19;;;;;;;11.80;8.80;;;9.20;99.90;;;;;;6121881;23;20382;-77
2024/03/30 02:22:53;;;;;;;15.60;9.77;;;9.20;99.90;;;;;;6076929;23;20375;-77
2024/03/30 02:25:20;;;;;;;16.23;9.90;;;9.20;99.90;;;;;;6096914;23;20393;-76
2024/03/30 02:27:50;;;;;;;13.60;9.73;;;9.20;99.90;;;;;;6184026;23;20453;-77
2024/03/30 02:30:29;;;;;;;13.60;10.50;;;9.10;99.90;;;;;;6115227;23;20394;-76
2024/03/30 02:32:57;;;;;;;12.63;9.50;;;9.20;99.90;;;;;;6163164;23;20437;-78
2024/03/30 02:35:24;;;;;;;10.67;7.73;;;9.10;99.90;;;;;;6138144;23;20386;-76
2024/03/30 02:37:55;;;;;;;14.37;11.47;;;9.10;99.90;;;;;;6137190;23;20405;-76
2024/03/30 02:40:53;;;;;;;16.73;11.17;;;9.10;99.90;;;;;;6191237;23;20378;-76
2024/03/30 02:43:23;;;;;;;14.93;11.77;;;9.20;99.90;;;;;;6140505;23;20374;-75
2024/03/30 02:45:52;;;;;;;16.17;12.93;;;9.20;99.90;;;;;;6187753;23;20368;-77
2024/03/30 02:48:20;;;;;;;14.23;10.23;;;9.10;99.90;;;;;;6211666;23;20366;-77
2024/03/30 02:50:49;;;;;;;12.53;9.33;;;9.10;99.90;;;;;;6162216;23;20394;-76
2024/03/30 02:53:18;;;;;;;16.27;12.47;;;9.10;99.90;;;;;;6163917;23;20449;-76
2024/03/30 02:55:46;;;;;;;16.40;12.43;;;9.10;99.90;;;;;;6186554;23;20417;-75
2024/03/30 02:58:15;;;;;;;16.80;11.23;;;9.10;99.90;;;;;;6185337;23;20376;-76
2024/03/30 03:00:42;;;;;;;16.63;12.37;;;9.10;99.90;;;;;;6122071;23;20388;-77
2024/03/30 03:03:08;;;;;;;15.53;11.27;;;9.10;99.90;;;;;;6062887;23;20378;-77
2024/03/30 03:05:37;;;;;;;13.40;10.30;;;9.10;99.90;;;;;;6062747;23;20379;-77
2024/03/30 03:08:10;;;;;;;13.57;9.77;;;9.10;99.90;;;;;;6064159;23;20398;-75
2024/03/30 03:10:40;;;;;;;11.40;10.20;;;9.00;99.90;;;;;;6015162;23;20437;-77
2024/03/30 03:13:12;;;;;;;14.53;10.20;;;9.00;99.90;;;;;;6062919;23;20401;-76
2024/03/30 03:15:41;;;;;;;15.07;10.80;;;9.00;99.90;;;;;;6064311;23;20442;-76
2024/03/30 03:18:11;;;;;;;12.10;9.37;;;9.00;99.90;;;;;;6040504;23;20401;-77
2024/03/30 03:20:38;;;;;;;12.47;8.83;;;9.00;99.90;;;;;;6063261;23;20391;-76
2024/03/30 03:23:16;;;;;;;11.77;9.00;;;8.90;99.90;;;;;;6040760;23;20352;-76
2024/03/30 03:25:43;;;;;;;14.20;10.70;;;8.90;99.90;;;;;;6064231;23;20410;-77
2024/03/30 03:28:09;;;;;;;9.70;7.30;;;8.90;99.90;;;;;;6063249;23;20422;-76
2024/03/30 03:30:35;;;;;;;13.10;9.70;;;8.90;99.90;;;;;;6067149;23;20438;-77
2024/03/30 03:33:05;;;;;;;9.70;7.77;;;8.90;99.90;;;;;;6101301;23;20472;-76
2024/03/30 03:35:32;;;;;;;11.20;8.40;;;8.90;99.90;;;;;;6154987;23;20375;-77
2024/03/30 03:38:00;;;;;;;11.50;8.80;;;8.80;99.90;;;;;;6155328;23;20403;-75
2024/03/30 03:40:55;;;;;;;12.27;8.80;;;8.80;99.90;;;;;;6156229;23;20391;-77
2024/03/30 03:43:23;;;;;;;12.00;7.57;;;8.80;99.90;;;;;;6180790;23;20371;-76
2024/03/30 03:45:58;;;;;;;8.53;7.37;;;8.80;99.90;;;;;;6122570;23;20368;-77
2024/03/30 03:48:24;;;;;;;12.47;8.73;;;8.80;99.90;;;;;;6074433;23;20495;-76
2024/03/30 03:51:12;;;;;;;16.30;12.27;;;8.80;99.90;;;;;;6121227;23;20453;-75
2024/03/30 03:53:43;;;;;;;18.27;10.50;;;8.90;99.90;;;;;;6121267;23;20399;-76
2024/03/30 03:56:09;;;;;;;14.57;10.47;;;8.90;99.90;;;;;;6119043;23;20404;-76
2024/03/30 03:58:38;;;;;;;15.80;12.60;;;8.90;99.90;;;;;;6120549;23;20369;-76
2024/03/30 04:01:07;;;;;;;12.17;9.73;;;8.90;99.90;;;;;;6096430;23;20369;-76
2024/03/30 04:03:39;;;;;;;12.47;10.13;;;8.90;99.90;;;;;;6072777;23;20411;-75
2024/03/30 04:06:09;;;;;;;12.90;9.93;;;8.90;99.90;;;;;;6105315;23;20499;-78
2024/03/30 04:08:36;;;;;;;14.27;10.10;;;8.90;99.90;;;;;;6101555;23;20393;-75
2024/03/30 04:11:19;;;;;;;12.30;10.00;;;8.90;99.90;;;;;;6126597;23;20376;-76
2024/03/30 04:13:49;;;;;;;12.80;10.80;;;8.90;99.90;;;;;;6101608;23;20391;-76
2024/03/30 04:16:17;;;;;;;13.03;9.10;;;8.90;99.90;;;;;;6090575;23;20387;-77
2024/03/30 04:18:44;;;;;;;14.40;9.97;;;8.90;99.90;;;;;;6156446;23;20368;-76
2024/03/30 04:21:16;;;;;;;10.93;8.97;;;8.90;99.90;;;;;;6185487;23;20362;-75
2024/03/30 04:24:07;;;;;;;11.87;9.73;;;8.90;99.90;;;;;;6178220;23;20406;-76
2024/03/30 04:26:37;;;;;;;11.57;9.90;;;8.90;99.90;;;;;;6156406;23;20391;-77
2024/03/30 04:29:11;;;;;;;13.80;9.73;;;9.00;99.90;;;;;;6155863;23;20370;-76
2024/03/30 04:31:39;;;;;;;11.73;9.27;;;9.00;99.90;;;;;;6179295;23;20458;-75
2024/03/30 04:34:09;;;;;;;10.20;8.93;;;8.90;99.90;;;;;;6130233;23;20365;-76
2024/03/30 04:36:39;;;;;;;10.37;8.17;;;8.90;99.90;;;;;;6180576;23;20244;-74
2024/03/30 04:39:07;;;;;;;11.50;8.17;;;8.90;99.90;;;;;;6251957;22;20537;-75
2024/03/30 04:41:36;;;;;;;9.70;7.80;;;8.90;99.90;;;;;;6210207;23;20392;-76
2024/03/30 04:44:02;;;;;;;13.43;8.97;;;8.90;99.90;;;;;;6157564;23;20394;-77
2024/03/30 04:46:30;;;;;;;9.77;7.50;;;8.90;99.90;;;;;;6076104;23;20372;-77
2024/03/30 04:48:57;;;;;;;12.63;10.60;;;8.90;99.90;;;;;;6090656;23;20461;-77
2024/03/30 04:51:27;;;;;;;12.20;9.50;;;8.90;99.90;;;;;;6043668;23;20614;-77
2024/03/30 04:53:54;;;;;;;16.57;11.00;;;9.00;99.90;;;;;;6038727;23;20374;-76
2024/03/30 04:56:24;;;;;;;12.60;9.43;;;9.00;99.90;;;;;;6038462;23;20390;-77
2024/03/30 04:58:50;;;;;;;12.97;9.40;;;9.00;99.90;;;;;;6003146;23;20427;-75
2024/03/30 05:01:16;;;;;;;12.23;9.50;;;9.00;99.90;;;;;;6049388;23;20413;-75
2024/03/30 05:03:42;;;;;;;13.37;9.87;;;9.00;99.90;;;;;;6036692;23;20206;-76
2024/03/30 05:06:10;;;;;;;13.17;9.30;;;9.00;99.90;;;;;;6036221;23;20438;-76
2024/03/30 05:08:36;;;;;;;11.67;9.30;;;9.00;99.90;;;;;;6012196;23;20175;-75
2024/03/30 05:11:02;;;;;;;11.67;9.40;;;9.00;99.90;;;;;;6013532;23;20393;-77
2024/03/30 05:13:28;;;;;;;12.40;9.37;;;9.00;99.90;;;;;;6115599;23;20419;-76
2024/03/30 05:15:55;;;;;;;14.60;9.93;;;9.00;99.90;;;;;;6122472;23;20360;-76
2024/03/30 05:18:22;;;;;;;13.13;9.37;;;9.00;99.90;;;;;;6149388;23;20402;-76
2024/03/30 05:20:59;;;;;;;9.67;8.40;;;9.00;99.90;;;;;;6129201;23;20570;-76
2024/03/30 05:23:28;;;;;;;11.00;8.47;;;9.00;99.90;;;;;;6104643;23;20386;-77
2024/03/30 05:25:59;;;;;;;12.77;8.50;;;9.00;99.90;;;;;;6255412;22;20374;-74
2024/03/30 05:28:35;;;;;;;10.60;9.10;;;9.10;99.90;;;;;;6274277;22;20375;-76
2024/03/30 05:31:29;;;;;;;10.23;8.37;;;9.10;99.90;;;;;;6277492;22;20386;-76
2024/03/30 05:33:56;;;;;;;12.20;8.10;;;9.10;99.90;;;;;;6275775;22;20375;-76
2024/03/30 05:36:36;;;;;;;10.33;8.30;;;9.10;99.90;;;;;;6240136;23;20420;-77
2024/03/30 05:39:13;;;;;;;15.00;8.60;;;9.20;99.90;;;;;;6216173;23;20457;-76
2024/03/30 05:42:00;;;;;;;9.17;8.03;;;9.20;99.90;;;;;;6220580;23;20377;-76
2024/03/30 05:44:32;;;;;;;13.57;9.27;;;9.30;99.90;;;;;;6215568;23;20436;-77
2024/03/30 05:47:03;;;;;;;12.37;7.30;;;9.40;99.90;;;;;;6191206;23;20412;-75
2024/03/30 05:49:55;;;;;;;8.00;7.17;;;9.40;99.90;;;;;;6221682;23;20468;-76
2024/03/30 05:52:45;;;;;;;8.13;6.70;;;9.50;99.90;;;;;;6216374;23;20492;-77
2024/03/30 05:55:28;;;;;;;9.13;7.03;;;9.50;99.90;;;;;;6212241;23;20629;-76
2024/03/30 06:01:00;;;;;;;7.47;5.83;;;9.60;99.90;;;;;;6154450;23;20701;-76
2024/03/30 06:03:51;;;;;;;9.70;6.70;;;9.70;99.90;;;;;;6092725;23;20413;-76
2024/03/30 06:06:18;;;;;;;7.33;6.33;;;9.80;99.90;;;;;;6091868;23;20429;-76
2024/03/30 06:08:56;;;;;;;12.43;7.30;;;9.80;99.90;;;;;;6092648;23;20348;-77
2024/03/30 06:11:24;;;;;;;9.30;6.03;;;9.90;99.90;;;;;;6067743;23;20409;-76
2024/03/30 06:13:50;;;;;;;7.90;5.77;;;9.90;99.90;;;;;;6045091;23;20433;-75
2024/03/30 06:16:17;;;;;;;6.50;5.20;;;10.00;99.90;;;;;;6068420;23;20397;-75
2024/03/30 06:18:43;;;;;;;5.67;4.90;;;10.00;99.90;;;;;;6040224;23;20370;-76
2024/03/30 06:21:15;;;;;;;6.70;5.67;;;10.00;99.90;;;;;;6041865;23;20434;-77
2024/03/30 06:23:43;;;;;;;7.03;5.00;;;10.10;99.90;;;;;;6039638;23;20415;-76
2024/03/30 06:26:15;;;;;;;5.43;4.83;;;10.10;99.90;;;;;;6041541;23;20489;-76
2024/03/30 06:28:44;;;;;;;7.20;4.70;;;10.20;99.90;;;;;;6040008;23;20362;-77
2024/03/30 06:31:29;;;;;;;11.37;5.10;;;10.20;99.90;;;;;;6064209;23;20374;-76
2024/03/30 06:34:04;;;;;;;6.30;4.90;;;10.30;99.90;;;;;;6033467;23;20442;-76
2024/03/30 06:36:32;;;;;;;6.40;4.80;;;10.30;99.90;;;;;;6041486;23;20431;-75
2024/03/30 06:39:14;;;;;;;10.10;5.77;;;10.40;99.90;;;;;;6041780;23;20358;-76
2024/03/30 06:44:33;;;;;;;8.07;4.90;;;10.60;99.90;;;;;;6007889;24;20453;-75
2024/03/30 06:47:05;;;;;;;7.00;4.30;;;10.60;99.90;;;;;;5968852;24;20432;-76
2024/03/30 06:49:42;;;;;;;4.50;4.00;;;10.50;99.90;;;;;;6031536;23;20433;-76
2024/03/30 06:52:33;;;;;;;6.17;4.00;;;10.50;99.90;;;;;;5950602;24;20497;-75
2024/03/30 06:55:02;;;;;;;7.27;5.10;;;10.60;99.90;;;;;;5999598;23;20429;-75
2024/03/30 06:57:32;;;;;;;7.20;4.60;;;10.80;99.90;;;;;;5897598;24;20400;-76
2024/03/30 07:00:13;;;;;;;10.00;4.47;;;10.80;99.90;;;;;;5916448;24;20403;-77
2024/03/30 07:03:03;;;;;;;6.23;4.40;;;10.90;99.90;;;;;;5942674;24;20836;-77
2024/03/30 07:08:29;;;;;;;4.60;4.00;;;10.80;99.90;;;;;;6230378;22;20441;-75
2024/03/30 07:11:24;;;;;;;5.23;3.33;;;10.90;99.90;;;;;;6242150;23;20385;-77
2024/03/30 07:13:58;;;;;;;5.73;3.83;;;10.90;99.90;;;;;;6192247;23;20334;-77
2024/03/30 07:16:32;;;;;;;3.10;2.53;;;10.90;99.90;;;;;;6168547;23;20429;-75
2024/03/30 07:19:04;;;;;;;8.97;4.17;;;11.00;99.90;;;;;;6154947;23;20374;-75
2024/03/30 07:21:38;;;;;;;4.50;3.00;;;11.10;99.90;;;;;;6110983;23;20399;-75
2024/03/30 07:24:08;;;;;;;6.23;4.23;;;11.20;99.90;;;;;;6074124;23;20382;-76
2024/03/30 07:26:42;;;;;;;5.50;3.60;;;11.30;99.90;;;;;;6105680;23;20428;-76
2024/03/30 07:29:18;;;;;;;3.30;3.00;;;11.30;99.90;;;;;;6219488;23;20373;-76
2024/03/30 07:31:49;;;;;;;5.23;4.33;;;11.30;99.90;;;;;;6218375;23;20426;-75
2024/03/30 07:34:58;;;;;;;6.30;4.00;;;11.40;99.90;;;;;;6218139;22;20394;-77
2024/03/30 07:45:42;;;;;;;5.43;3.70;;;11.70;99.90;;;;;;6207233;23;20428;-77
2024/03/30 07:48:45;;;;;;;6.90;4.37;;;11.70;99.90;;;;;;6241035;23;20416;-76
2024/03/30 07:51:41;;;;;;;8.60;4.53;;;11.90;99.90;;;;;;6217899;23;20360;-78
2024/03/30 07:54:16;;;;;;;6.63;4.70;;;12.00;99.90;;;;;;6191338;23;20395;-76
2024/03/30 07:57:16;;;;;;;7.40;4.77;;;12.00;99.90;;;;;;6168535;23;20390;-76
2024/03/30 08:00:10;;;;;;;6.10;4.90;;;12.10;99.90;;;;;;6152735;23;20389;-76
2024/03/30 08:02:41;;;;;;;5.30;4.80;;;12.20;99.90;;;;;;6099719;23;20374;-76
2024/03/30 08:05:38;;;;;;;5.60;4.07;;;12.30;99.90;;;;;;6098727;23;20367;-76
2024/03/30 08:08:49;;;;;;;7.60;3.93;;;12.40;99.90;;;;;;6082121;23;20367;-76
2024/03/30 08:11:43;;;;;;;5.60;4.17;;;12.50;99.90;;;;;;6108845;23;20425;-76
2024/03/30 08:14:37;;;;;;;7.70;4.50;;;12.70;99.90;;;;;;6077863;23;20402;-77
2024/03/30 08:17:18;;;;;;;7.43;4.07;;;12.80;99.90;;;;;;6099766;23;20886;-76
